Muskogee, OK

4:32 PM CDT on September 04, 2015 (GMT -0500)
APRSWXNET | | Change Station
CLOSE
Current Station
Personal Weather Station
Location: Muskogee, OK
Elevation: 582 ft
Nearby Weather Stations

Elev 582 ft 35.75 °N, 95.33 °W | Updated 32 minutes ago

Clear
Clear
94 °F
Feels Like 102 °F
N
0
Wind Variable Wind from SE
Gusts 5.0 mph

Today
High -- | Low -- °F
--% Chance of Precip.
Yesterday
High -- | Low -- °F
Precip. -- in
6:55 AM 7:44 PM
Waning Gibbous, 56% visible
Pressure 29.93 in
Visibility 10.0 miles
Clouds Clear
Heat Index 102 °F
Dew Point 71 °F
Humidity 48%
Rainfall in
Snow Depth Not available.
UV 6 out of 12
Pollen 10.20 out of 12
Air Quality Not available.
Flu Activity Not available.
METAR KMKO 042053Z AUTO 12006KT 10SM CLR 34/22 A2995 RMK AO2 SLP133 60000 T03390217 58018
Pressure 29.93 in
Visibility 10.0 miles
Clouds Clear
Heat Index 102 °F
Dew Point 71 °F
Humidity 48%
Rainfall in
Snow Depth Not available.
UV 6 out of 12
Pollen 10.20 out of 12
Air Quality Not available.
Flu Activity Not available.
METAR KMKO 042053Z AUTO 12006KT 10SM CLR 34/22 A2995 RMK AO2 SLP133 60000 T03390217 58018
Nowcast | as of 2:59 PM CDT on September 4, 2015

At 2:59 PM...Doppler radars detected scattered showers over portions of far southeast Oklahoma and west central Arkansas. These short lived showers were lifting north at around 10 mph. Through 5:00 PM...widely scattered showers and isolated thunderstorms will be possible for locations across far southeast Oklahoma and west central Arkansas...mainly along and south of Interstate 40...and east of a Scipio to Boswell line. Average hourly rainfall of around one tenth of an inch will be common... with isolated locally higher amounts to around one half inch possible in heavier downpours. Brief gusty winds to 40 mph will also be possible.

×

10-Day Weather Forecast

×

Almanac

Astronomy

Sep. 04, 2015 Rise Set
Actual Time
Civil Twilight
Nautical Twilight
Astronomical Twilight
Moon
Length of Visible Light
Length of Day
Tomorrow will be .
, % of the Moon is Illuminated

Today's Extremes

State Highs State Lows

Community

WunderPhotos

Upload Photos

1,852,297 photos uploaded!

WunderBlogs® & News

Nearby

Air Quality

  Air Quality AQ Index Pollutant
Not available.

Snow Depth

Station Depth Elevation

Earthquake Activity

City Distance Mag. Time & Date
Minimum magnitude displayed is 2.5.

Coastal Water Temperatures

Place Temperature

Stations

Nearby Weather Stations

Station Location Temp. Windchill Dew Point Humidity Wind Precip. Elev Updated Type